Martinez, Georgia
Current Conditions -  °F | °C
As of 8:53 AM on Wednesday 26 Nov 2014 (Local Time) from KDNL Reporting Station
Light Rain Light Rain  
Wind Chill: 50°   Ceiling: 7000
Heat Index: 50°   Visibility: 10mi
Dew Point: 47°   Wind: 6mph
Humidity: 89%   Direction: 20°NNE
Pressure: 30.01"   Gusts: NA
Location:  33.52°N, 82.07°W
Report Text: KDNL 261353Z AUTO 02005KT 10SM -RA FEW006 SCT020 OVC070 10/08 A3001 RMK AO2 SLP160 P0003 T01000083
Loading
Personal Weather Stations






























Interactive Weather Map New forecast layout! Learn more

10-Day Weather Forecast

Advertisements
Track Severe Weather on mobile